createdAt,value
2018-12-26T00:01:27.115Z,99774.34
2018-12-26T00:04:18.481Z,99782.48
2018-12-26T00:06:50.288Z,99782.92
2018-12-26T00:09:20.727Z,99788.94
2018-12-26T00:12:10.890Z,99792.38
2018-12-26T00:14:43.279Z,99787.64
2018-12-26T00:17:14.218Z,99786.77
2018-12-26T00:20:05.674Z,99787.65
2018-12-26T00:22:36.474Z,99786.77
2018-12-26T00:25:26.213Z,99787.17
2018-12-26T00:28:15.779Z,99785.47
2018-12-26T00:31:06.299Z,99783.28
2018-12-26T00:33:57.005Z,99778.98
2018-12-26T00:36:28.215Z,99785.84
2018-12-26T00:42:13.517Z,99780.30
2018-12-26T00:44:43.966Z,99772.98
2018-12-26T00:47:15.039Z,99771.20
2018-12-26T00:49:45.450Z,99762.16
2018-12-26T00:52:16.205Z,99762.13
2018-12-26T00:54:46.938Z,99750.95
2018-12-26T00:57:38.219Z,99756.04
2018-12-26T01:06:08.210Z,99758.92
2018-12-26T01:08:57.975Z,99769.21
2018-12-26T01:11:29.069Z,99761.11
2018-12-26T01:17:49.919Z,99754.62
2018-12-26T01:20:39.955Z,99747.72
2018-12-26T01:23:30.178Z,99749.81
2018-12-26T01:29:23.767Z,99751.59
2018-12-26T01:31:54.740Z,99745.62
2018-12-26T01:34:25.189Z,99737.86
2018-12-26T01:36:55.930Z,99742.09
2018-12-26T01:39:46.200Z,99742.02
2018-12-26T01:42:17.863Z,99744.61
2018-12-26T01:45:24.655Z,99742.14
2018-12-26T01:48:33.097Z,99741.34
2018-12-26T01:51:47.397Z,99732.73
2018-12-26T01:54:38.239Z,99725.42
2018-12-26T01:57:27.873Z,99720.34
2018-12-26T02:00:21.069Z,99544.56
2018-12-26T02:03:03.267Z,99711.83
2018-12-26T02:05:45.070Z,99716.57
2018-12-26T02:08:27.437Z,99711.86
2018-12-26T02:13:34.615Z,99708.42
2018-12-26T02:19:38.180Z,99695.98
2018-12-26T02:22:28.299Z,99687.42
2018-12-26T02:24:59.045Z,99691.30
2018-12-26T02:27:49.539Z,99696.03
2018-12-26T02:30:21.610Z,99706.77
2018-12-26T02:32:52.026Z,99712.81
2018-12-26T02:35:41.910Z,99710.23
2018-12-26T02:38:32.205Z,99691.74
2018-12-26T02:44:23.394Z,99688.33
2018-12-26T02:49:31.021Z,99684.04
2018-12-26T02:52:22.212Z,99690.04
2018-12-26T02:54:52.983Z,99694.33
2018-12-26T02:57:43.165Z,99690.45
2018-12-26T03:00:34.083Z,99692.19
2018-12-26T03:03:05.909Z,99680.19
2018-12-26T03:06:15.616Z,99665.56
2018-12-26T03:08:46.121Z,99666.02
2018-12-26T03:11:17.546Z,99665.57
2018-12-26T03:13:48.280Z,99666.86
2018-12-26T03:16:39.116Z,99674.15
2018-12-26T03:19:10.671Z,99675.42
2018-12-26T03:24:56.269Z,99664.25
2018-12-26T03:27:28.301Z,99668.53
2018-12-26T03:29:59.377Z,99659.97
2018-12-26T03:32:50.128Z,99661.27
2018-12-26T03:35:21.975Z,99659.11
2018-12-26T03:38:13.353Z,99662.53
2018-12-26T03:41:03.388Z,99657.41
2018-12-26T03:46:49.024Z,99659.09
2018-12-26T03:52:15.198Z,99661.64
2018-12-26T03:58:15.695Z,99658.16
2018-12-26T04:00:46.357Z,99649.17
2018-12-26T04:03:28.450Z,99644.03
2018-12-26T04:06:03.261Z,99644.50
2018-12-26T04:09:12.969Z,99644.45
2018-12-26T04:12:08.925Z,99655.59
2018-12-26T04:15:08.657Z,99657.34
2018-12-26T04:17:42.728Z,99649.61
2018-12-26T04:20:13.453Z,99644.92
2018-12-26T04:23:02.959Z,99640.16
2018-12-26T04:25:34.037Z,99643.59
2018-12-26T04:28:52.279Z,99652.60
2018-12-26T04:32:03.967Z,99652.63
2018-12-26T04:35:37.333Z,99648.77
2018-12-26T04:38:26.986Z,99639.77
2018-12-26T04:41:17.051Z,99640.19
2018-12-26T04:44:07.421Z,99641.89
2018-12-26T04:46:58.693Z,99639.31
2018-12-26T04:49:29.682Z,99641.02
2018-12-26T04:52:00.112Z,99647.02
2018-12-26T04:54:53.862Z,99649.58
2018-12-26T04:57:45.560Z,99662.00
2018-12-26T05:00:36.179Z,99657.33
2018-12-26T05:03:20.687Z,99573.53
2018-12-26T05:05:51.635Z,99658.63
2018-12-26T05:08:22.264Z,99661.18
2018-12-26T05:11:11.909Z,99662.48
2018-12-26T05:14:02.584Z,99657.72
2018-12-26T05:16:34.045Z,99662.03
2018-12-26T05:19:27.713Z,99656.02
2018-12-26T05:25:09.656Z,99527.14
2018-12-26T05:28:02.886Z,99665.48
2018-12-26T05:30:35.110Z,99663.31
2018-12-26T05:37:06.669Z,99670.63
2018-12-26T05:40:15.090Z,99674.50
2018-12-26T05:46:12.265Z,99672.34
2018-12-26T05:52:10.132Z,99681.41
2018-12-26T05:58:05.764Z,99688.25
2018-12-26T06:03:42.649Z,99699.36
2018-12-26T06:06:27.367Z,99695.08
2018-12-26T06:09:28.353Z,99695.96
2018-12-26T06:12:11.472Z,99695.48
2018-12-26T06:17:36.607Z,99691.16
2018-12-26T06:20:27.556Z,99696.73
2018-12-26T06:23:17.395Z,99706.11
2018-12-26T06:26:09.907Z,99703.50
2018-12-26T06:32:06.942Z,99712.89
2018-12-26T06:35:18.748Z,99705.61
2018-12-26T06:37:50.928Z,99712.01
2018-12-26T06:40:48.026Z,99711.19
2018-12-26T06:43:18.767Z,99715.00
2018-12-26T06:46:17.729Z,99727.91
2018-12-26T06:52:07.411Z,99721.38
2018-12-26T06:55:10.361Z,99723.06
2018-12-26T06:58:11.031Z,99727.34
2018-12-26T07:01:01.613Z,99729.55
2018-12-26T07:14:31.123Z,99722.22
2018-12-26T07:17:02.473Z,99725.63
2018-12-26T07:19:53.127Z,99720.43
2018-12-26T07:22:44.102Z,99721.69
2018-12-26T07:25:14.877Z,99720.85
2018-12-26T07:28:08.904Z,99721.20
2018-12-26T07:30:56.414Z,99728.84
2018-12-26T07:33:47.863Z,99730.59
2018-12-26T07:39:36.055Z,99727.19
2018-12-26T07:42:27.034Z,99725.89
2018-12-26T07:44:59.925Z,99726.87
2018-12-26T07:47:35.626Z,99726.52
2018-12-26T07:50:11.625Z,99735.94
2018-12-26T07:53:01.426Z,99739.38
2018-12-26T07:55:34.276Z,99735.08
2018-12-26T07:58:06.766Z,99740.71
2018-12-26T08:03:59.755Z,99748.00
2018-12-26T08:06:41.051Z,99743.23
2018-12-26T08:09:35.326Z,99743.23
2018-12-26T08:12:24.660Z,99733.41
2018-12-26T08:18:08.881Z,99735.58
2018-12-26T08:20:39.353Z,99744.24
2018-12-26T08:23:29.160Z,99734.37
2018-12-26T08:26:18.778Z,99733.03
2018-12-26T08:28:50.133Z,99729.51
2018-12-26T08:37:48.348Z,99718.16
2018-12-26T08:40:19.408Z,99724.22
2018-12-26T08:42:52.145Z,99717.30
2018-12-26T08:45:41.941Z,99734.92
2018-12-26T08:51:07.331Z,99746.66
2018-12-26T08:53:38.060Z,99743.20
2018-12-26T08:56:08.456Z,99749.53
2018-12-26T08:58:58.182Z,99747.03
2018-12-26T09:01:47.544Z,99751.81
2018-12-26T09:04:37.082Z,99755.27
2018-12-26T09:09:51.202Z,99767.70
2018-12-26T09:12:40.899Z,99767.78
2018-12-26T09:15:31.829Z,99763.09
2018-12-26T09:18:24.332Z,99764.42
2018-12-26T09:21:14.189Z,99766.97
2018-12-26T09:24:06.192Z,99763.17
2018-12-26T09:29:33.421Z,99752.88
2018-12-26T09:32:06.823Z,99757.60
2018-12-26T09:34:37.214Z,99752.89
2018-12-26T09:37:07.579Z,99740.84
2018-12-26T09:43:02.725Z,99742.23
2018-12-26T09:45:33.200Z,99745.70
2018-12-26T09:48:10.011Z,99746.97
2018-12-26T09:50:59.322Z,99744.38
2018-12-26T09:53:49.121Z,99743.91
2018-12-26T09:56:40.483Z,99747.37
2018-12-26T09:59:31.458Z,99750.80
2018-12-26T10:02:20.846Z,99748.26
2018-12-26T10:05:29.928Z,99738.82
2018-12-26T10:08:07.140Z,99747.40
2018-12-26T10:10:59.198Z,99748.66
2018-12-26T10:13:50.911Z,99759.83
2018-12-26T10:16:40.703Z,99753.84
2018-12-26T10:19:50.278Z,99759.02
2018-12-26T10:22:42.805Z,99757.27
2018-12-26T10:25:13.512Z,99759.95
2018-12-26T10:28:06.636Z,99766.85
2018-12-26T10:30:58.630Z,99764.69
2018-12-26T10:33:49.708Z,99758.61
2018-12-26T10:36:39.488Z,99754.35
2018-12-26T10:42:34.769Z,99756.85
2018-12-26T10:45:26.583Z,99755.99
2018-12-26T10:48:17.564Z,99753.07
2018-12-26T10:50:48.563Z,99754.41
2018-12-26T10:53:20.490Z,99742.44
2018-12-26T10:55:51.125Z,99737.30
2018-12-26T10:58:42.876Z,99730.45
2018-12-26T11:01:13.882Z,99729.59
2018-12-26T11:03:45.126Z,99726.58
2018-12-26T11:06:16.112Z,99724.00
2018-12-26T11:08:58.175Z,99721.44
2018-12-26T11:11:40.432Z,99718.01
2018-12-26T11:14:23.468Z,99709.84
2018-12-26T11:17:13.740Z,99702.55
2018-12-26T11:19:44.783Z,99696.94
2018-12-26T11:22:15.628Z,99704.70
2018-12-26T11:25:08.147Z,99691.81
2018-12-26T11:27:38.748Z,99697.80
2018-12-26T11:30:11.192Z,99695.23
2018-12-26T11:33:01.568Z,99687.06
2018-12-26T11:35:56.114Z,99686.20
2018-12-26T11:38:46.324Z,99677.20
2018-12-26T11:41:20.433Z,99521.30
2018-12-26T11:44:10.361Z,99672.47
2018-12-26T11:46:43.739Z,99678.05
2018-12-26T11:49:34.851Z,99674.18
2018-12-26T11:52:18.412Z,99669.85
2018-12-26T11:55:16.708Z,99662.98
2018-12-26T11:57:57.297Z,99665.16
2018-12-26T12:01:01.356Z,99658.26
2018-12-26T12:03:20.250Z,99659.13
2018-12-26T12:05:53.978Z,99658.70
2018-12-26T12:08:42.431Z,99664.73
2018-12-26T12:11:13.706Z,99660.86
2018-12-26T12:14:08.416Z,99641.53
2018-12-26T12:16:43.763Z,99646.27
2018-12-26T12:19:36.205Z,99635.52
2018-12-26T12:22:33.722Z,99636.36
2018-12-26T12:25:23.550Z,99638.51
2018-12-26T12:27:54.192Z,99643.23
2018-12-26T12:30:24.852Z,99642.79
2018-12-26T12:32:55.853Z,99639.36
2018-12-26T12:35:46.603Z,99637.64
2018-12-26T12:38:37.906Z,99641.94
2018-12-26T12:41:27.799Z,99523.44
2018-12-26T12:44:36.188Z,99626.44
2018-12-26T12:47:08.208Z,99632.44
2018-12-26T12:49:57.904Z,99636.38
2018-12-26T12:52:51.855Z,99638.95
2018-12-26T12:55:42.054Z,99632.95
2018-12-26T12:58:14.460Z,99628.63
2018-12-26T13:04:09.742Z,99626.06
2018-12-26T13:06:44.321Z,99524.70
2018-12-26T13:09:16.661Z,99627.34
2018-12-26T13:12:07.491Z,99629.08
2018-12-26T13:14:38.281Z,99636.78
2018-12-26T13:17:31.222Z,99627.31
2018-12-26T13:20:04.502Z,99620.87
2018-12-26T13:22:36.765Z,99620.00
2018-12-26T13:25:27.391Z,99614.86
2018-12-26T13:31:04.897Z,99597.23
2018-12-26T13:33:48.572Z,99602.39
2018-12-26T13:36:39.457Z,99608.38
2018-12-26T13:42:46.071Z,99604.94
2018-12-26T13:45:19.776Z,99558.11
2018-12-26T13:48:09.551Z,99613.95
2018-12-26T13:50:40.342Z,99528.89
2018-12-26T13:53:11.631Z,99621.66
2018-12-26T13:55:42.371Z,99624.67
2018-12-26T13:58:13.894Z,99624.67
2018-12-26T14:00:45.593Z,99620.37
2018-12-26T14:03:16.321Z,99620.37
2018-12-26T14:06:26.477Z,99625.52
2018-12-26T14:08:58.088Z,99623.40
2018-12-26T14:11:48.038Z,99623.01
2018-12-26T14:14:49.809Z,99622.14
2018-12-26T14:17:31.340Z,99620.84
2018-12-26T14:20:03.654Z,99620.41
2018-12-26T14:22:54.135Z,99621.68
2018-12-26T14:25:26.354Z,99625.95
2018-12-26T14:27:58.265Z,99620.37
2018-12-26T14:30:29.301Z,99617.78
2018-12-26T14:33:01.047Z,99622.95
2018-12-26T14:35:31.760Z,99615.23
2018-12-26T14:38:26.333Z,99619.09
2018-12-26T14:41:16.319Z,99610.53
2018-12-26T14:44:06.153Z,99619.55
2018-12-26T14:46:37.525Z,99610.48
2018-12-26T14:49:21.408Z,99607.48
2018-12-26T14:51:52.028Z,99610.49
2018-12-26T14:54:23.681Z,99613.05
2018-12-26T14:57:13.061Z,99622.86
2018-12-26T15:00:02.583Z,99621.16
2018-12-26T15:02:33.821Z,99496.52
2018-12-26T15:05:42.503Z,99630.53
2018-12-26T15:08:16.235Z,99628.02
2018-12-26T15:13:25.563Z,99629.30
2018-12-26T15:16:07.844Z,99628.41
2018-12-26T15:18:49.534Z,99625.41
2018-12-26T15:21:31.383Z,99623.70
2018-12-26T15:24:11.397Z,99621.54
2018-12-26T15:27:00.802Z,99626.64
2018-12-26T15:29:50.562Z,99628.34
2018-12-26T15:32:24.257Z,99626.63
2018-12-26T15:37:44.815Z,99628.34
2018-12-26T15:40:34.833Z,99620.16
2018-12-26T15:43:45.288Z,99628.27
2018-12-26T15:46:15.862Z,99628.28
2018-12-26T15:48:46.741Z,99624.84
2018-12-26T15:51:19.239Z,99624.36
2018-12-26T15:57:16.895Z,99626.02
2018-12-26T16:00:08.096Z,99623.01
2018-12-26T16:03:00.259Z,99619.97
2018-12-26T16:05:53.525Z,99473.09
2018-12-26T16:08:29.225Z,99619.19
2018-12-26T16:11:00.242Z,99617.88
2018-12-26T16:16:45.460Z,99612.73
2018-12-26T16:19:16.728Z,99530.72
2018-12-26T16:22:25.287Z,99616.25
2018-12-26T16:25:16.251Z,99618.40
2018-12-26T16:27:50.938Z,99613.63
2018-12-26T16:30:22.145Z,99619.20
2018-12-26T16:33:12.903Z,99619.66
2018-12-26T16:35:45.873Z,99621.73
2018-12-26T16:38:16.551Z,99623.88
2018-12-26T16:40:48.173Z,99627.27
2018-12-26T16:43:39.030Z,99622.13
2018-12-26T16:46:34.981Z,99630.64
2018-12-26T16:49:25.393Z,99623.78
2018-12-26T16:52:15.719Z,99629.33
2018-12-26T16:54:52.718Z,99631.03
2018-12-26T16:57:23.468Z,99627.67
2018-12-26T17:00:15.012Z,99621.23
2018-12-26T17:06:00.740Z,99618.64
2018-12-26T17:08:32.272Z,99630.66
2018-12-26T17:11:23.863Z,99621.23
2018-12-26T17:20:24.941Z,99616.06
2018-12-26T17:22:56.661Z,99614.77
2018-12-26T17:25:58.400Z,99614.72
2018-12-26T17:28:49.027Z,99453.95
2018-12-26T17:31:20.056Z,99609.16
2018-12-26T17:34:14.247Z,99612.12
2018-12-26T17:36:54.131Z,99615.99
2018-12-26T17:39:46.496Z,99612.14
2018-12-26T17:42:22.610Z,99619.00
2018-12-26T17:44:55.403Z,99612.58
2018-12-26T17:47:45.086Z,99615.18
2018-12-26T17:50:39.206Z,99610.39
2018-12-26T17:53:22.565Z,99609.95
2018-12-26T18:02:16.309Z,99608.62
2018-12-26T18:10:21.730Z,99602.69
2018-12-26T18:12:52.174Z,99604.80
2018-12-26T18:15:23.229Z,99608.62
2018-12-26T18:20:47.140Z,99603.08
2018-12-26T18:23:19.218Z,99605.67
2018-12-26T18:25:51.461Z,99610.33
2018-12-26T18:28:22.632Z,99603.90
2018-12-26T18:31:12.681Z,99606.45
2018-12-26T18:34:02.564Z,99609.05
2018-12-26T18:36:56.726Z,99608.62
2018-12-26T18:39:29.631Z,99606.03
2018-12-26T18:42:00.719Z,99604.74
2018-12-26T18:45:12.335Z,99601.80
2018-12-26T18:51:01.623Z,99591.11
2018-12-26T18:53:53.139Z,99597.13
2018-12-26T19:03:29.961Z,99592.30
2018-12-26T19:08:58.710Z,99588.02
2018-12-26T19:11:48.821Z,99586.29
2018-12-26T19:14:22.830Z,99583.36
2018-12-26T19:17:15.124Z,99580.34
2018-12-26T19:20:13.120Z,99583.75
2018-12-26T19:25:29.089Z,99587.19
2018-12-26T19:28:01.787Z,99584.98
2018-12-26T19:30:51.070Z,99586.29
2018-12-26T19:33:41.710Z,99581.63
2018-12-26T19:36:12.267Z,99577.84
2018-12-26T19:38:43.278Z,99583.42
2018-12-26T19:41:33.397Z,99574.40
2018-12-26T19:44:04.600Z,99576.58
2018-12-26T19:52:37.350Z,99551.68
2018-12-26T19:58:42.419Z,99543.05
2018-12-26T20:07:26.439Z,99545.23
2018-12-26T20:10:00.165Z,99542.72
2018-12-26T20:12:31.664Z,99541.82
2018-12-26T20:15:02.720Z,99541.02
2018-12-26T20:17:42.097Z,99538.00
2018-12-26T20:20:13.799Z,99539.70
2018-12-26T20:23:34.939Z,99533.61
2018-12-26T20:26:32.922Z,99529.39
2018-12-26T20:29:03.529Z,99535.37
2018-12-26T20:31:35.350Z,99528.98
2018-12-26T20:34:06.883Z,99527.70
2018-12-26T20:36:37.540Z,99528.98
2018-12-26T20:42:49.349Z,99522.97
2018-12-26T20:49:33.449Z,99519.56
2018-12-26T20:52:04.106Z,99514.82
2018-12-26T20:54:37.639Z,99512.65
2018-12-26T20:57:08.688Z,99510.55
2018-12-26T20:59:39.823Z,99514.78
2018-12-26T21:02:10.333Z,99510.91
2018-12-26T21:04:40.727Z,99512.17
2018-12-26T21:07:12.461Z,99510.49
2018-12-26T21:09:44.838Z,99507.91
2018-12-26T21:12:16.985Z,99511.33
2018-12-26T21:14:47.808Z,99509.64
2018-12-26T21:18:06.878Z,99504.87
2018-12-26T21:21:25.299Z,99501.00
2018-12-26T21:23:58.622Z,99500.55
2018-12-26T21:26:31.724Z,99503.14
2018-12-26T21:29:04.070Z,99498.85
2018-12-26T21:31:38.060Z,99495.44
2018-12-26T21:34:20.583Z,99496.21
2018-12-26T21:36:51.069Z,99491.98
2018-12-26T21:39:21.604Z,99488.11
2018-12-26T21:41:52.249Z,99486.86
2018-12-26T21:44:22.928Z,99486.47
2018-12-26T21:46:53.759Z,99488.60
2018-12-26T21:49:26.010Z,99482.55
2018-12-26T21:51:56.952Z,99482.53
2018-12-26T21:54:30.579Z,99479.92
2018-12-26T21:57:02.863Z,99477.36
2018-12-26T21:59:39.007Z,99486.73
2018-12-26T22:02:10.526Z,99473.09
2018-12-26T22:04:41.356Z,99471.78
2018-12-26T22:08:13.798Z,99469.66
2018-12-26T22:10:44.471Z,99466.23
2018-12-26T22:13:15.568Z,99465.34
2018-12-26T22:15:51.458Z,99461.49
2018-12-26T22:18:22.044Z,99457.63
2018-12-26T22:20:52.887Z,99456.73
2018-12-26T22:23:24.340Z,99452.91
2018-12-26T22:25:55.216Z,99460.61
2018-12-26T22:28:28.027Z,99461.94
2018-12-26T22:31:06.461Z,99465.70
2018-12-26T22:33:38.581Z,99471.62
2018-12-26T22:36:09.597Z,99469.59
2018-12-26T22:38:41.522Z,99477.25
2018-12-26T22:41:13.516Z,99474.16
2018-12-26T22:43:44.177Z,99473.75
2018-12-26T22:46:14.555Z,99472.06
2018-12-26T22:48:44.976Z,99470.36
2018-12-26T22:51:16.494Z,99466.94
2018-12-26T22:53:46.854Z,99466.54
2018-12-26T22:56:17.580Z,99475.94
2018-12-26T23:02:38.848Z,99467.40
2018-12-26T23:05:07.855Z,99466.14
2018-12-26T23:07:38.712Z,99454.56
2018-12-26T23:10:09.557Z,99457.53
2018-12-26T23:15:51.674Z,99457.46
2018-12-26T23:18:21.974Z,99452.72
2018-12-26T23:20:54.350Z,99451.86
2018-12-26T23:23:26.089Z,99450.13
2018-12-26T23:25:56.444Z,99453.09
2018-12-26T23:28:26.802Z,99453.53
2018-12-26T23:30:57.339Z,99446.66
2018-12-26T23:33:27.685Z,99446.18
2018-12-26T23:36:19.506Z,99442.73
2018-12-26T23:38:51.225Z,99441.39
2018-12-26T23:41:22.655Z,99432.00
2018-12-26T23:43:53.574Z,99432.50
2018-12-26T23:46:23.935Z,99430.71
2018-12-26T23:48:54.811Z,99425.53
2018-12-26T23:51:25.286Z,99420.02
2018-12-26T23:53:56.268Z,99421.77
2018-12-26T23:56:26.682Z,99422.10
2018-12-26T23:59:24.398Z,99413.20
